Time;durP1;ratioP1;P1;durP2;ratioP2;P2;SDS_P1;SDS_P2;PMS_P1;PMS_P2;Temp;Humidity;BMP_temperature;BMP_pressure;BME280_temperature;BME280_humidity;BME280_pressure;Samples;Min_cycle;Max_cycle;Signal;HPM_P1;HPM_P2
2021/04/11 00:01:49;;;;;;;;;;;;;;;18.16;59.19;101739.44;5012434;28;1584;-65
2021/04/11 00:04:14;;;;;;;;;;;;;;;18.17;58.74;101738.47;5010080;28;1475;-59
2021/04/11 00:06:39;;;;;;;;;;;;;;;18.18;59.08;101741.03;5016870;28;1882;-59
2021/04/11 00:09:06;;;;;;;;;;;;;;;18.17;59.19;101728.63;5013534;28;1498;-59
2021/04/11 00:11:31;;;;;;;;;;;;;;;18.17;59.47;101743.84;5014001;28;1484;-66
2021/04/11 00:13:57;;;;;;;;;;;;;;;18.16;59.08;101732.25;5015033;28;1732;-59
2021/04/11 00:16:23;;;;;;;;;;;;;;;18.15;59.68;101735.91;5014459;28;1418;-65
2021/04/11 00:18:48;;;;;;;;;;;;;;;18.16;58.91;101732.25;5016669;28;1464;-59
2021/04/11 00:21:14;;;;;;;;;;;;;;;18.16;58.79;101726.88;5014436;28;1487;-60
2021/04/11 00:23:40;;;;;;;;;;;;;;;18.14;59.55;101731.50;5012967;28;1477;-59
2021/04/11 00:26:06;;;;;;;;;;;;;;;18.13;59.35;101737.84;5013738;28;1906;-65
2021/04/11 00:28:31;;;;;;;;;;;;;;;18.12;58.69;101719.19;5014035;28;1547;-65
2021/04/11 00:30:57;;;;;;;;;;;;;;;18.13;59.51;101727.13;5011913;28;1676;-64
2021/04/11 00:33:33;;;;;;;;;;;;;;;18.14;59.44;101734.19;5017439;28;1272;-60
2021/04/11 00:36:00;;;;;;;;;;;;;;;18.13;59.54;101743.19;5015985;28;1311;-65
2021/04/11 00:38:26;;;;;;;;;;;;;;;18.11;59.25;101733.56;5013293;28;1693;-65
2021/04/11 00:40:52;;;;;;;;;;;;;;;18.11;59.24;101730.88;5011274;28;1498;-59
2021/04/11 00:43:18;;;;;;;;;;;;;;;18.11;59.65;101734.41;5013943;28;1414;-59
2021/04/11 00:45:58;;;;;;;;;;;;;;;18.11;59.68;101739.75;5014622;28;1882;-60
2021/04/11 00:48:25;;;;;;;;;;;;;;;18.06;59.78;101729.38;5016002;28;1220;-59
2021/04/11 00:51:02;;;;;;;;;;;;;;;18.07;59.34;101730.22;5014903;28;1549;-65
2021/04/11 00:53:27;;;;;;;;;;;;;;;18.10;60.00;101732.69;5012875;28;1767;-65
2021/04/11 00:55:53;;;;;;;;;;;;;;;18.04;59.45;101733.09;5012511;28;1472;-60
2021/04/11 00:58:20;;;;;;;;;;;;;;;18.05;58.78;101741.03;5016234;28;1519;-65
2021/04/11 01:00:46;;;;;;;;;;;;;;;18.08;59.12;101739.94;5012470;28;1392;-60
2021/04/11 01:03:16;;;;;;;;;;;;;;;18.05;59.79;101732.16;5014483;28;1480;-60
2021/04/11 01:05:42;;;;;;;;;;;;;;;18.03;59.82;101726.06;5023584;28;1972;-65
2021/04/11 01:08:12;;;;;;;;;;;;;;;18.04;59.94;101733.94;5013510;28;1456;-65
2021/04/11 01:10:39;;;;;;;;;;;;;;;18.02;59.36;101729.66;5013585;28;1485;-65
2021/04/11 01:13:04;;;;;;;;;;;;;;;18.01;59.40;101738.69;5006518;28;1477;-60
2021/04/11 01:15:32;;;;;;;;;;;;;;;18.00;60.21;101726.25;5011556;28;1390;-65
2021/04/11 01:17:57;;;;;;;;;;;;;;;17.99;60.10;101725.41;5015522;28;1303;-65
2021/04/11 01:20:23;;;;;;;;;;;;;;;18.01;59.79;101733.31;5011415;28;1681;-65
2021/04/11 01:22:49;;;;;;;;;;;;;;;18.00;59.94;101734.28;5012761;28;1468;-65
2021/04/11 01:25:18;;;;;;;;;;;;;;;17.98;59.62;101722.81;5015474;28;1985;-60
2021/04/11 01:27:44;;;;;;;;;;;;;;;17.97;59.65;101735.34;5013619;28;1465;-60
2021/04/11 01:30:19;;;;;;;;;;;;;;;17.99;59.42;101729.91;5013513;28;1417;-64
2021/04/11 01:32:45;;;;;;;;;;;;;;;17.99;60.17;101735.25;5016305;28;1227;-60
2021/04/11 01:35:11;;;;;;;;;;;;;;;18.00;59.92;101731.59;5014232;28;1658;-60
2021/04/11 01:37:37;;;;;;;;;;;;;;;18.01;59.66;101733.31;5011788;28;1485;-59
2021/04/11 01:40:04;;;;;;;;;;;;;;;17.99;60.04;101732.56;5012195;28;1525;-60
2021/04/11 01:42:29;;;;;;;;;;;;;;;17.97;60.02;101727.31;5014214;28;1533;-65
2021/04/11 01:44:55;;;;;;;;;;;;;;;18.00;60.13;101737.81;5009024;28;1452;-65
2021/04/11 01:47:20;;;;;;;;;;;;;;;18.04;60.43;101741.13;5013515;28;1952;-65
2021/04/11 01:49:46;;;;;;;;;;;;;;;18.00;60.10;101723.56;4994478;28;1446;-65
2021/04/11 01:52:15;;;;;;;;;;;;;;;18.00;59.99;101720.91;5011382;28;1547;-60
2021/04/11 01:54:41;;;;;;;;;;;;;;;17.98;59.63;101733.53;5011207;28;1469;-65
2021/04/11 01:57:17;;;;;;;;;;;;;;;17.99;60.50;101735.25;5014484;28;1418;-65
2021/04/11 01:59:42;;;;;;;;;;;;;;;17.98;60.59;101726.34;5012762;28;1448;-65
2021/04/11 02:02:08;;;;;;;;;;;;;;;17.95;60.38;101739.94;5023087;23;2022;-47
2021/04/11 02:04:33;;;;;;;;;;;;;;;17.92;59.78;101729.44;5007564;28;1571;-47
2021/04/11 02:07:01;;;;;;;;;;;;;;;17.95;59.96;101731.06;5009662;28;1918;-46
2021/04/11 02:09:29;;;;;;;;;;;;;;;17.95;59.73;101726.56;5009763;28;1523;-47
2021/04/11 02:11:55;;;;;;;;;;;;;;;17.93;60.23;101727.66;5018702;23;3532;-60
2021/04/11 02:14:21;;;;;;;;;;;;;;;17.93;59.81;101728.50;5007043;28;1453;-60
2021/04/11 02:16:47;;;;;;;;;;;;;;;17.91;59.69;101725.06;5010414;28;1474;-62
2021/04/11 02:19:17;;;;;;;;;;;;;;;17.94;60.33;101738.22;5008940;28;1435;-60
2021/04/11 02:22:05;;;;;;;;;;;;;;;17.92;60.57;101733.94;5010074;28;1408;-65
2021/04/11 02:24:30;;;;;;;;;;;;;;;17.86;60.79;101721.84;5004985;28;1649;-65
2021/04/11 02:26:56;;;;;;;;;;;;;;;17.86;59.92;101724.50;5007927;28;1923;-60
2021/04/11 02:29:23;;;;;;;;;;;;;;;17.86;60.74;101725.38;5012633;28;1387;-60
2021/04/11 02:31:49;;;;;;;;;;;;;;;17.88;60.02;101749.34;5010127;28;1453;-60
2021/04/11 02:34:20;;;;;;;;;;;;;;;17.85;60.97;101728.16;5009832;28;1497;-65
2021/04/11 02:36:48;;;;;;;;;;;;;;;18.27;59.24;101735.03;5009832;28;1445;-60
2021/04/11 02:39:15;;;;;;;;;;;;;;;18.85;57.74;101735.44;5011579;28;1517;-60
2021/04/11 02:41:41;;;;;;;;;;;;;;;19.22;57.09;101753.34;5010349;28;1437;-60
2021/04/11 02:44:06;;;;;;;;;;;;;;;19.41;56.76;101737.59;5011045;28;1153;-60
2021/04/11 02:46:36;;;;;;;;;;;;;;;19.81;55.88;101736.44;5007304;28;1882;-65
2021/04/11 02:49:03;;;;;;;;;;;;;;;20.21;54.66;101734.25;4980201;28;1627;-64
2021/04/11 02:51:30;;;;;;;;;;;;;;;20.27;54.62;101739.13;5003188;28;1603;-60
2021/04/11 02:53:57;;;;;;;;;;;;;;;20.13;55.03;101746.53;5002076;28;1406;-60
2021/04/11 02:56:23;;;;;;;;;;;;;;;20.01;55.10;101745.66;5010569;28;1375;-60
2021/04/11 02:58:48;;;;;;;;;;;;;;;19.99;55.52;101748.44;5009913;28;1351;-65
2021/04/11 03:01:15;;;;;;;;;;;;;;;20.07;54.98;101745.16;5002966;28;1486;-60
2021/04/11 03:03:40;;;;;;;;;;;;;;;20.21;54.61;101760.22;5001948;28;1433;-60
2021/04/11 03:06:15;;;;;;;;;;;;;;;20.24;54.99;101768.91;5008585;28;1963;-65
2021/04/11 03:08:43;;;;;;;;;;;;;;;20.31;54.66;101763.88;5009367;28;1454;-60
2021/04/11 03:11:17;;;;;;;;;;;;;;;20.30;54.68;101767.56;5009861;28;1602;-64
2021/04/11 03:13:43;;;;;;;;;;;;;;;20.31;54.40;101768.41;5000092;28;1500;-60
2021/04/11 03:16:09;;;;;;;;;;;;;;;20.35;54.69;101768.06;5001965;28;1504;-60
2021/04/11 03:18:35;;;;;;;;;;;;;;;20.39;54.81;101776.72;5006353;28;1629;-65
2021/04/11 03:21:02;;;;;;;;;;;;;;;20.42;54.07;101792.63;5004959;28;833;-60
2021/04/11 03:23:28;;;;;;;;;;;;;;;20.42;54.29;101776.50;5015260;28;1554;-65
2021/04/11 03:26:00;;;;;;;;;;;;;;;20.42;54.01;101782.72;5001270;28;1974;-60
2021/04/11 03:28:32;;;;;;;;;;;;;;;20.37;54.52;101776.00;5001477;28;1494;-60
2021/04/11 03:31:06;;;;;;;;;;;;;;;20.43;54.27;101778.19;5002700;28;1339;-64
2021/04/11 03:33:35;;;;;;;;;;;;;;;20.43;54.76;101780.88;5008878;28;1500;-64
2021/04/11 03:36:02;;;;;;;;;;;;;;;20.60;54.30;101801.94;5005246;28;1820;-60
2021/04/11 03:38:28;;;;;;;;;;;;;;;20.54;54.23;101791.66;5007413;28;1642;-60
2021/04/11 03:40:55;;;;;;;;;;;;;;;20.63;54.96;101799.03;5004513;28;1744;-60
2021/04/11 03:43:24;;;;;;;;;;;;;;;20.62;54.60;101800.00;5014620;28;1581;-60
2021/04/11 03:45:50;;;;;;;;;;;;;;;20.60;54.23;101795.72;5003992;28;1965;-59
2021/04/11 03:48:22;;;;;;;;;;;;;;;20.67;54.88;101807.69;5013244;28;872;-63
2021/04/11 03:50:50;;;;;;;;;;;;;;;20.63;54.77;101806.22;5004340;28;1489;-58
2021/04/11 03:53:35;;;;;;;;;;;;;;;20.63;54.61;101804.41;5012573;28;1793;-66
2021/04/11 03:56:03;;;;;;;;;;;;;;;20.63;54.98;101809.78;5005664;28;1418;-70
2021/04/11 03:58:31;;;;;;;;;;;;;;;20.01;56.36;101810.09;5015212;28;1418;-65
2021/04/11 04:00:59;;;;;;;;;;;;;;;19.64;57.44;101807.47;5005466;28;1436;-61
2021/04/11 04:03:26;;;;;;;;;;;;;;;19.44;58.04;101817.84;5010355;28;1252;-60
2021/04/11 04:05:52;;;;;;;;;;;;;;;19.32;58.07;101823.25;5002573;28;1898;-59
2021/04/11 04:08:17;;;;;;;;;;;;;;;19.22;58.56;101820.41;5009008;28;1543;-65
2021/04/11 04:10:48;;;;;;;;;;;;;;;19.17;59.01;101814.50;5006340;28;1529;-67
2021/04/11 04:13:32;;;;;;;;;;;;;;;19.07;59.50;101828.56;5011262;28;1560;-61
2021/04/11 04:16:14;;;;;;;;;;;;;;;19.01;59.99;101834.34;5003904;28;1538;-59
2021/04/11 04:18:48;;;;;;;;;;;;;;;18.99;60.17;101833.63;5019169;28;1551;-59
2021/04/11 04:21:19;;;;;;;;;;;;;;;18.95;59.85;101842.00;5009229;28;1346;-60
2021/04/11 04:24:03;;;;;;;;;;;;;;;18.92;60.00;101842.19;5024482;28;1396;-58
2021/04/11 04:26:33;;;;;;;;;;;;;;;18.85;60.35;101831.06;5011110;28;1911;-58
2021/04/11 04:28:58;;;;;;;;;;;;;;;18.83;60.38;101838.34;5008232;28;1057;-58
2021/04/11 04:31:39;;;;;;;;;;;;;;;18.78;60.15;101835.97;5008213;28;1590;-58
2021/04/11 04:34:20;;;;;;;;;;;;;;;18.74;60.77;101853.25;5012647;28;1428;-59
2021/04/11 04:37:04;;;;;;;;;;;;;;;18.73;60.39;101848.81;5012261;28;1500;-58
2021/04/11 04:39:35;;;;;;;;;;;;;;;18.67;60.54;101839.38;5009963;28;1563;-59
2021/04/11 04:42:04;;;;;;;;;;;;;;;18.66;60.01;101837.69;5010481;28;1464;-65
2021/04/11 04:44:38;;;;;;;;;;;;;;;18.61;60.53;101852.38;5009412;28;1429;-64
2021/04/11 04:47:14;;;;;;;;;;;;;;;18.62;60.68;101859.41;5015446;28;1886;-60
2021/04/11 04:49:43;;;;;;;;;;;;;;;18.62;60.75;101846.91;5011742;28;1429;-59
2021/04/11 04:52:11;;;;;;;;;;;;;;;18.82;60.28;101852.72;5005157;28;1566;-60
2021/04/11 04:54:43;;;;;;;;;;;;;;;19.34;58.76;101861.53;5004867;28;1407;-57
2021/04/11 04:57:12;;;;;;;;;;;;;;;20.25;56.50;101851.19;5016201;28;1032;-58
2021/04/11 04:59:42;;;;;;;;;;;;;;;21.05;54.14;101844.13;5011515;28;1507;-58
2021/04/11 05:02:13;;;;;;;;;;;;;;;21.74;51.52;101854.66;5012677;28;1567;-59
2021/04/11 05:04:41;;;;;;;;;;;;;;;21.78;51.03;101853.44;5010491;28;1557;-63
2021/04/11 05:07:11;;;;;;;;;;;;;;;21.64;52.20;101856.41;5004987;28;1906;-60
2021/04/11 05:09:51;;;;;;;;;;;;;;;21.89;50.34;101862.47;4991556;28;1510;-61
2021/04/11 05:12:20;;;;;;;;;;;;;;;21.59;51.38;101864.03;4996118;28;1464;-58
2021/04/11 05:14:49;;;;;;;;;;;;;;;20.70;53.81;101880.03;5000782;28;1460;-63
2021/04/11 05:17:14;;;;;;;;;;;;;;;20.33;54.50;101873.91;5007318;28;970;-67
2021/04/11 05:19:43;;;;;;;;;;;;;;;20.04;55.20;101877.00;5005865;28;1437;-66
2021/04/11 05:22:16;;;;;;;;;;;;;;;19.79;56.03;101886.84;5003390;28;1389;-64
2021/04/11 05:24:46;;;;;;;;;;;;;;;19.61;56.24;101872.94;5004536;28;1503;-59
2021/04/11 05:27:20;;;;;;;;;;;;;;;19.64;56.12;101877.25;4996674;28;1978;-59
2021/04/11 05:30:12;;;;;;;;;;;;;;;19.68;56.11;101879.56;5001251;28;1435;-62
2021/04/11 05:32:38;;;;;;;;;;;;;;;19.65;56.27;101884.31;5005524;28;1321;-60
2021/04/11 05:35:03;;;;;;;;;;;;;;;19.56;56.75;101880.47;5003377;28;1406;-60
2021/04/11 05:37:52;;;;;;;;;;;;;;;19.39;56.82;101879.00;4997008;28;1488;-61
2021/04/11 05:40:17;;;;;;;;;;;;;;;19.38;57.02;101871.94;4996948;28;1825;-61
2021/04/11 05:43:04;;;;;;;;;;;;;;;19.35;57.09;101893.63;5001200;28;1489;-61
2021/04/11 05:45:38;;;;;;;;;;;;;;;19.38;57.18;101888.03;4990109;28;11506;-60
2021/04/11 05:48:12;;;;;;;;;;;;;;;19.40;57.22;101886.09;5006184;28;1261;-64
2021/04/11 05:51:04;;;;;;;;;;;;;;;19.45;57.22;101883.94;5002798;28;1500;-58
2021/04/11 05:53:45;;;;;;;;;;;;;;;19.53;56.98;101877.16;4998126;28;1447;-58
2021/04/11 05:56:13;;;;;;;;;;;;;;;19.65;56.79;101884.31;4999470;28;1744;-58
2021/04/11 05:58:42;;;;;;;;;;;;;;;19.60;56.98;101878.44;5005899;28;1374;-58
2021/04/11 06:01:29;;;;;;;;;;;;;;;19.57;57.09;101875.97;4997777;28;1496;-62
2021/04/11 06:04:00;;;;;;;;;;;;;;;19.61;56.71;101888.19;4992711;28;1346;-60
2021/04/11 06:06:30;;;;;;;;;;;;;;;19.61;57.23;101888.19;4997268;28;1922;-58
2021/04/11 06:08:58;;;;;;;;;;;;;;;19.57;57.35;101879.50;4995364;28;1605;-58
2021/04/11 06:11:29;;;;;;;;;;;;;;;19.59;57.61;101879.41;4995555;28;1699;-62
2021/04/11 06:13:58;;;;;;;;;;;;;;;19.61;57.73;101882.81;4997192;28;1369;-59
2021/04/11 06:16:26;;;;;;;;;;;;;;;19.56;57.54;101880.47;4997401;28;1527;-59
2021/04/11 06:18:52;;;;;;;;;;;;;;;19.60;57.52;101878.44;5000281;28;1532;-58
2021/04/11 06:21:22;;;;;;;;;;;;;;;19.59;57.29;101869.50;4996496;28;1436;-61
2021/04/11 06:24:07;;;;;;;;;;;;;;;19.59;56.91;101874.88;4996435;28;860;-63
2021/04/11 06:26:59;;;;;;;;;;;;;;;19.55;57.65;101877.91;4974885;28;1922;-59
2021/04/11 06:29:28;;;;;;;;;;;;;;;19.50;57.36;101874.69;4981051;28;1465;-59
2021/04/11 06:31:53;;;;;;;;;;;;;;;19.41;57.00;101881.59;4997006;28;955;-59
2021/04/11 06:34:29;;;;;;;;;;;;;;;19.35;56.14;101882.88;5002690;28;1547;-58
2021/04/11 06:37:00;;;;;;;;;;;;;;;19.32;54.97;101882.25;4994686;28;1949;-57
2021/04/11 06:39:28;;;;;;;;;;;;;;;19.30;53.95;101879.69;4999317;28;1417;-63
2021/04/11 06:42:09;;;;;;;;;;;;;;;19.24;53.01;101870.25;5001250;28;1518;-69
2021/04/11 06:44:41;;;;;;;;;;;;;;;19.26;51.72;101867.47;5001329;28;1433;-63
2021/04/11 06:47:21;;;;;;;;;;;;;;;19.25;51.40;101871.09;5001547;28;1890;-58
2021/04/11 06:49:58;;;;;;;;;;;;;;;19.26;50.18;101879.06;5000676;28;1656;-62
2021/04/11 06:52:35;;;;;;;;;;;;;;;19.24;49.97;101869.41;4995009;28;1464;-63
2021/04/11 06:55:14;;;;;;;;;;;;;;;19.23;49.82;101873.03;4998394;28;1531;-64
2021/04/11 06:57:39;;;;;;;;;;;;;;;19.31;49.79;101865.31;5000713;28;1081;-58
2021/04/11 07:00:05;;;;;;;;;;;;;;;19.38;50.11;101861.22;4997409;28;1481;-59
2021/04/11 07:02:43;;;;;;;;;;;;;;;19.48;50.23;101873.00;5001841;28;1396;-59
2021/04/11 07:05:26;;;;;;;;;;;;;;;19.53;50.79;101871.78;4994084;28;1275;-66
2021/04/11 07:08:00;;;;;;;;;;;;;;;19.54;51.11;101870.84;5001354;28;1562;-59
2021/04/11 07:10:47;;;;;;;;;;;;;;;19.55;51.65;101872.53;5003555;28;1479;-59
2021/04/11 07:13:15;;;;;;;;;;;;;;;19.57;51.88;101884.00;4999220;28;1631;-61
2021/04/11 07:16:00;;;;;;;;;;;;;;;19.55;52.01;101877.91;4998195;28;1343;-57
2021/04/11 07:18:44;;;;;;;;;;;;;;;19.54;50.51;101870.84;3955219;28;10000872;-57
2021/04/11 07:21:28;;;;;;;;;;;;;;;19.44;51.10;101882.22;4990076;28;1545;-62
2021/04/11 07:24:12;;;;;;;;;;;;;;;19.41;51.96;101877.06;5002153;28;1301;-61
2021/04/11 07:26:43;;;;;;;;;;;;;;;19.38;51.62;101877.31;5003030;28;2021;-59
2021/04/11 07:29:17;;;;;;;;;;;;;;;19.19;50.90;101876.91;5002056;28;1360;-63
2021/04/11 07:31:58;;;;;;;;;;;;;;;19.29;50.57;101877.97;5008507;28;1290;-60
2021/04/11 07:34:23;;;;;;;;;;;;;;;19.34;50.33;101878.50;5008298;28;1351;-63
2021/04/11 07:37:04;;;;;;;;;;;;;;;19.38;50.61;101882.69;5001266;28;1357;-60
2021/04/11 07:39:29;;;;;;;;;;;;;;;19.42;50.58;101886.84;5002480;28;1201;-60
2021/04/11 07:42:06;;;;;;;;;;;;;;;19.42;50.87;101888.69;5004302;28;1387;-60
2021/04/11 07:44:35;;;;;;;;;;;;;;;19.42;51.15;101900.25;5001007;28;1395;-59
2021/04/11 07:47:19;;;;;;;;;;;;;;;19.38;50.70;101889.88;4996193;28;1894;-60
2021/04/11 07:50:03;;;;;;;;;;;;;;;19.31;51.25;101885.91;5004038;28;1216;-59
2021/04/11 07:52:48;;;;;;;;;;;;;;;19.29;49.13;101896.75;5005553;28;1449;-59
2021/04/11 07:55:32;;;;;;;;;;;;;;;19.31;48.95;101897.47;5004745;28;1253;-59
2021/04/11 07:58:15;;;;;;;;;;;;;;;19.28;48.66;101890.53;5007348;28;1154;-59
2021/04/11 08:01:20;;;;;;;;;;;;;;;19.30;47.51;101887.75;5003381;28;1500;-60
2021/04/11 08:04:00;;;;;;;;;;;;;;;19.22;46.04;101900.84;4939576;29;1620;-59
2021/04/11 08:06:28;;;;;;;;;;;;;;;19.20;48.05;101878.63;4941470;29;1890;-59
2021/04/11 08:09:02;;;;;;;;;;;;;;;19.29;44.49;101888.69;4979400;28;1243;-59
2021/04/11 08:11:46;;;;;;;;;;;;;;;19.36;46.61;101892.66;5003660;28;1307;-60
2021/04/11 08:14:20;;;;;;;;;;;;;;;19.31;46.98;101886.75;5004720;28;1406;-62
2021/04/11 08:17:04;;;;;;;;;;;;;;;19.31;45.63;101892.13;5002945;28;1346;-55
2021/04/11 08:19:41;;;;;;;;;;;;;;;19.02;39.53;101895.06;5001535;28;1560;-59
2021/04/11 08:22:19;;;;;;;;;;;;;;;19.08;46.05;101891.09;5004009;28;1541;-60
2021/04/11 08:24:46;;;;;;;;;;;;;;;19.18;45.06;101888.59;5004848;28;1741;-59
2021/04/11 08:27:36;;;;;;;;;;;;;;;19.22;44.85;101892.81;5006774;28;2052;-59
2021/04/11 08:30:06;;;;;;;;;;;;;;;19.28;44.98;101887.00;5007460;28;1579;-59
2021/04/11 08:32:31;;;;;;;;;;;;;;;19.32;47.52;101899.22;5009229;28;1795;-60
2021/04/11 08:35:14;;;;;;;;;;;;;;;19.08;46.55;101885.75;5007011;28;1871;-59
2021/04/11 08:37:43;;;;;;;;;;;;;;;19.10;43.18;101901.69;5005548;28;1411;-58
2021/04/11 08:40:14;;;;;;;;;;;;;;;19.07;43.04;101879.50;5004598;28;1343;-59
2021/04/11 08:42:51;;;;;;;;;;;;;;;18.91;41.94;101889.59;5000376;28;1526;-60
2021/04/11 08:45:35;;;;;;;;;;;;;;;18.71;39.42;101884.75;5004093;28;1914;-59
2021/04/11 08:48:06;;;;;;;;;;;;;;;18.44;40.64;101894.56;5011328;28;873;-59
2021/04/11 08:50:44;;;;;;;;;;;;;;;18.55;38.24;101877.75;4649996;28;9999873;-60
2021/04/11 08:53:19;;;;;;;;;;;;;;;18.69;41.50;101868.75;5003954;28;1307;-60
2021/04/11 08:55:49;;;;;;;;;;;;;;;18.78;41.94;101876.16;5005739;28;1409;-60
2021/04/11 08:58:33;;;;;;;;;;;;;;;18.88;42.51;101884.47;5024785;28;1465;-57
2021/04/11 09:01:14;;;;;;;;;;;;;;;18.99;40.97;101875.66;5008855;28;1466;-65
2021/04/11 09:03:46;;;;;;;;;;;;;;;19.03;41.77;101893.22;5007472;28;1343;-58
2021/04/11 09:06:24;;;;;;;;;;;;;;;19.03;42.70;101874.47;5009585;28;1953;-60
2021/04/11 09:08:52;;;;;;;;;;;;;;;19.07;44.42;101881.31;5008428;28;1284;-60
2021/04/11 09:11:36;;;;;;;;;;;;;;;19.06;43.03;101887.66;5005778;28;1448;-60
2021/04/11 09:14:20;;;;;;;;;;;;;;;19.04;42.48;101885.09;5007700;28;1430;-62
2021/04/11 09:16:48;;;;;;;;;;;;;;;19.02;45.95;101884.34;5006449;28;1534;-63
2021/04/11 09:19:31;;;;;;;;;;;;;;;19.06;43.02;101876.94;5007203;28;1387;-61
2021/04/11 09:22:00;;;;;;;;;;;;;;;19.03;44.63;101878.00;5007181;28;1514;-61
2021/04/11 09:24:44;;;;;;;;;;;;;;;19.08;42.92;101862.47;5006455;28;1432;-61
2021/04/11 09:27:23;;;;;;;;;;;;;;;19.10;46.04;101873.09;5005181;28;1974;-67
2021/04/11 09:29:52;;;;;;;;;;;;;;;19.03;44.95;101869.97;5003968;28;1415;-62
2021/04/11 09:32:21;;;;;;;;;;;;;;;19.01;45.98;101863.84;5006527;28;1375;-61
2021/04/11 09:34:57;;;;;;;;;;;;;;;18.71;38.84;101866.84;4997779;28;1323;-62
2021/04/11 09:37:28;;;;;;;;;;;;;;;18.77;40.53;101865.56;5004666;28;1411;-62
2021/04/11 09:40:13;;;;;;;;;;;;;;;18.85;47.01;101855.19;5006082;28;1163;-61
2021/04/11 09:43:16;;;;;;;;;;;;;;;18.94;47.47;101859.91;4997515;28;1483;-61
2021/04/11 09:45:44;;;;;;;;;;;;;;;19.02;42.55;101857.53;4965136;28;1894;-60
2021/04/11 09:48:16;;;;;;;;;;;;;;;18.96;44.29;101857.09;4956122;28;1310;-66
2021/04/11 09:51:04;;;;;;;;;;;;;;;18.75;46.41;101857.63;4986675;28;1394;-58
2021/04/11 09:53:48;;;;;;;;;;;;;;;18.82;42.28;101858.06;5004725;28;1542;-58
2021/04/11 09:56:29;;;;;;;;;;;;;;;18.80;40.40;101860.00;5000887;28;989;-58
2021/04/11 09:59:06;;;;;;;;;;;;;;;18.49;37.78;101862.94;5005502;28;1383;-58
2021/04/11 10:01:43;;;;;;;;;;;;;;;18.49;38.59;101867.47;5005511;28;1439;-66
2021/04/11 10:04:11;;;;;;;;;;;;;;;18.66;40.17;101859.13;5005281;28;1178;-62
2021/04/11 10:06:55;;;;;;;;;;;;;;;18.68;38.83;101856.31;5003978;28;1949;-63
2021/04/11 10:09:39;;;;;;;;;;;;;;;18.70;37.79;101859.75;5005535;28;1470;-62
2021/04/11 10:12:23;;;;;;;;;;;;;;;18.60;39.06;101847.97;5008113;28;1251;-58
2021/04/11 10:15:01;;;;;;;;;;;;;;;18.72;39.40;101849.81;5008496;28;1385;-60
2021/04/11 10:17:38;;;;;;;;;;;;;;;18.86;39.43;101856.88;5005147;28;1131;-64
2021/04/11 10:20:10;;;;;;;;;;;;;;;18.88;41.51;101857.66;5004031;28;1388;-60
2021/04/11 10:22:55;;;;;;;;;;;;;;;18.90;40.39;101852.16;5001517;28;1390;-57
2021/04/11 10:25:29;;;;;;;;;;;;;;;18.96;44.55;101847.25;5008648;28;1968;-66
2021/04/11 10:28:09;;;;;;;;;;;;;;;18.62;48.45;101851.38;5002648;28;1241;-65
2021/04/11 10:30:35;;;;;;;;;;;;;;;18.71;43.86;101852.59;5003329;28;1324;-57
2021/04/11 10:33:00;;;;;;;;;;;;;;;18.61;40.81;101850.53;5002720;28;942;-68
2021/04/11 10:35:32;;;;;;;;;;;;;;;18.67;41.01;101844.75;5002237;28;1610;-60
2021/04/11 10:38:01;;;;;;;;;;;;;;;18.72;39.99;101832.84;5001880;28;1331;-69
2021/04/11 10:40:35;;;;;;;;;;;;;;;18.77;43.42;101841.44;5004186;28;1422;-57
2021/04/11 10:43:13;;;;;;;;;;;;;;;18.72;41.68;101840.88;5000345;28;1268;-69
2021/04/11 10:45:43;;;;;;;;;;;;;;;18.71;43.50;101837.38;5004971;28;1941;-69
2021/04/11 10:48:16;;;;;;;;;;;;;;;18.69;44.26;101836.63;4998808;28;1148;-68
2021/04/11 10:50:59;;;;;;;;;;;;;;;18.76;40.54;101832.53;5001492;28;1210;-67
2021/04/11 10:53:34;;;;;;;;;;;;;;;18.89;38.94;101816.47;5001854;28;1236;-68
2021/04/11 10:56:06;;;;;;;;;;;;;;;18.88;38.46;101830.84;5006629;28;1448;-68
2021/04/11 10:58:40;;;;;;;;;;;;;;;18.86;40.09;101827.41;5009966;28;1355;-61
2021/04/11 11:01:20;;;;;;;;;;;;;;;18.86;40.17;101832.75;5009846;28;1437;-59
2021/04/11 11:03:45;;;;;;;;;;;;;;;18.87;39.32;101826.44;5026282;28;1382;-59
2021/04/11 11:06:36;;;;;;;;;;;;;;;18.88;38.27;101814.78;5006323;28;1902;-59
2021/04/11 11:09:08;;;;;;;;;;;;;;;18.84;40.39;101815.94;5006415;28;1426;-59
2021/04/11 11:11:39;;;;;;;;;;;;;;;18.87;41.32;101815.72;5006284;28;1446;-60
2021/04/11 11:14:13;;;;;;;;;;;;;;;18.89;42.34;101808.44;5003847;28;1500;-58
2021/04/11 11:16:45;;;;;;;;;;;;;;;18.86;38.71;101814.00;5008192;28;1415;-59
2021/04/11 11:19:29;;;;;;;;;;;;;;;18.87;39.88;101811.22;5009704;28;1256;-71
2021/04/11 11:21:54;;;;;;;;;;;;;;;18.80;40.82;101812.63;5011225;28;1481;-62
2021/04/11 11:24:39;;;;;;;;;;;;;;;18.78;41.66;101814.53;5007541;28;1250;-59
2021/04/11 11:27:11;;;;;;;;;;;;;;;18.88;42.36;101807.59;5010099;28;1918;-67
2021/04/11 11:29:54;;;;;;;;;;;;;;;18.86;41.26;101805.97;5009494;28;1394;-58
2021/04/11 11:32:23;;;;;;;;;;;;;;;18.89;38.84;101795.03;5009976;28;1112;-66
2021/04/11 11:35:00;;;;;;;;;;;;;;;18.88;39.92;101802.22;5010712;28;1348;-66
2021/04/11 11:37:51;;;;;;;;;;;;;;;18.85;40.21;101783.66;5010245;28;1436;-57
2021/04/11 11:40:22;;;;;;;;;;;;;;;18.87;41.76;101791.59;4998901;28;1211;-56
2021/04/11 11:43:06;;;;;;;;;;;;;;;18.99;42.63;101780.00;5003018;28;1534;-62
2021/04/11 11:45:31;;;;;;;;;;;;;;;18.90;43.60;101783.38;5009035;28;1993;-59
2021/04/11 11:48:15;;;;;;;;;;;;;;;18.82;42.66;101772.31;5007411;28;1273;-62
2021/04/11 11:50:59;;;;;;;;;;;;;;;18.81;40.39;101776.81;5009018;28;1358;-61
2021/04/11 11:53:36;;;;;;;;;;;;;;;18.87;41.42;101783.56;5010338;28;1400;-59
2021/04/11 11:56:09;;;;;;;;;;;;;;;18.90;37.46;101774.44;5000167;28;1442;-59
2021/04/11 11:58:40;;;;;;;;;;;;;;;18.89;39.63;101773.59;5010570;28;1581;-59
2021/04/11 12:01:10;;;;;;;;;;;;;;;18.83;36.24;101769.53;5009597;28;1483;-59
2021/04/11 12:03:36;;;;;;;;;;;;;;;18.86;37.51;101773.81;5013057;28;1490;-59
2021/04/11 12:06:05;;;;;;;;;;;;;;;18.80;35.33;101767.09;5008191;28;1886;-60
2021/04/11 12:08:49;;;;;;;;;;;;;;;18.73;35.13;101763.09;5010989;28;1546;-58
2021/04/11 12:11:24;;;;;;;;;;;;;;;18.69;36.40;101778.50;5013996;28;1449;-58
2021/04/11 12:13:52;;;;;;;;;;;;;;;18.76;35.79;101767.34;5013411;28;1352;-58
2021/04/11 12:16:27;;;;;;;;;;;;;;;18.72;38.62;101761.38;5013365;28;1404;-57
2021/04/11 12:19:01;;;;;;;;;;;;;;;18.73;38.90;101751.53;5010765;28;1452;-61
2021/04/11 12:21:44;;;;;;;;;;;;;;;18.71;39.46;101748.94;5011845;28;1192;-60
2021/04/11 12:24:21;;;;;;;;;;;;;;;18.74;39.26;101742.50;5010561;28;1243;-60
2021/04/11 12:26:49;;;;;;;;;;;;;;;18.73;39.98;101744.31;5015794;28;1906;-68
2021/04/11 12:29:18;;;;;;;;;;;;;;;18.76;39.44;101748.59;5006207;28;1340;-59
2021/04/11 12:31:44;;;;;;;;;;;;;;;18.78;37.46;101749.34;5017798;28;982;-59
2021/04/11 12:34:21;;;;;;;;;;;;;;;18.76;37.55;101748.59;5016116;28;1204;-59
2021/04/11 12:37:19;;;;;;;;;;;;;;;18.82;36.16;101745.50;5016258;28;1356;-59
2021/04/11 12:39:45;;;;;;;;;;;;;;;18.83;38.41;101741.88;4980156;28;1495;-57
2021/04/11 12:42:16;;;;;;;;;;;;;;;18.73;35.21;101740.81;5017718;28;1053;-61
2021/04/11 12:45:00;;;;;;;;;;;;;;;18.66;34.78;101730.53;5011155;28;1386;-58
2021/04/11 12:47:31;;;;;;;;;;;;;;;18.65;34.98;101728.78;5010608;28;1890;-54
2021/04/11 12:49:56;;;;;;;;;;;;;;;18.74;35.72;101739.81;5012937;28;1239;-54
2021/04/11 12:52:29;;;;;;;;;;;;;;;18.73;37.14;101733.63;5014217;28;1407;-62
2021/04/11 12:55:01;;;;;;;;;;;;;;;18.72;35.96;101728.34;5014424;28;1414;-56
2021/04/11 12:57:28;;;;;;;;;;;;;;;18.73;36.23;101719.38;5014946;28;1112;-59
2021/04/11 13:00:03;;;;;;;;;;;;;;;18.79;34.86;101732.31;5010029;28;1446;-59
2021/04/11 13:02:47;;;;;;;;;;;;;;;18.72;34.98;101739.06;5029020;28;1538;-65
2021/04/11 13:05:16;;;;;;;;;;;;;;;18.70;35.34;101728.47;5010969;28;1577;-56
2021/04/11 13:07:41;;;;;;;;;;;;;;;18.73;37.17;101719.38;5015185;28;1959;-70
2021/04/11 13:10:15;;;;;;;;;;;;;;;18.78;38.86;101715.41;5001464;28;1427;-55
2021/04/11 13:12:59;;;;;;;;;;;;;;;18.79;39.28;101713.56;5010099;28;1422;-56
2021/04/11 13:15:40;;;;;;;;;;;;;;;18.72;37.78;101709.59;5012871;28;1442;-63
2021/04/11 13:18:05;;;;;;;;;;;;;;;19.01;40.43;101718.25;5012040;28;990;-68